Imperial Beach, CA (91933)

4:02 PM PDT on August 30, 2014 (GMT -0700)
Hilltop | Change Station
CLOSE
Current Station
Personal Weather Station
Location: Chula Vista, CA
Elevation: 195 ft
Nearby Weather Stations
Active Advisory: Beach Hazard Statement

Elev 195 ft 32.63 °N, 117.06 °W | Updated 1 minute ago

Clear
Clear
80.9 °F
Feels Like 83 °F
N
5.9
Wind Variable Wind from WNW
Gusts 9.5 mph

Today
High -- | Low -- °F
--% Chance of Precip.
Yesterday
High -- | Low -- °F
Precip. -- in
6:22 AM 7:15 PM
Waxing Crescent, 25% visible
Pressure 29.78 in
Visibility 10.0 miles
Clouds Clear
Heat Index 83 °F
Dew Point 67 °F
Humidity 58%
Rainfall 0.00 in
Snow Depth Not available.
UV 5 out of 12
Pollen 8.10 out of 12
Ozone Good
PM2.5 Moderate
Flu Activity Not available.
METAR KNRS 302256Z AUTO 29007KT 10SM CLR 24/19 A2978 RMK AO2 SLP083 T02390189 $

More Conditions Fewer Conditions

Pressure 29.78 in
Visibility 10.0 miles
Clouds Clear
Heat Index 83 °F
Dew Point 67 °F
Humidity 58%
Rainfall 0.00 in
Snow Depth Not available.
UV 5 out of 12
Pollen 8.10 out of 12
Ozone Good
PM2.5 Moderate
Flu Activity Not available.
METAR KNRS 302256Z AUTO 29007KT 10SM CLR 24/19 A2978 RMK AO2 SLP083 T02390189 $

More Conditions Fewer Conditions

10-Day Weather Forecast

Almanac

Astronomy

Aug. 30, 2014 Rise Set
Actual Time 6:22 AM PDT 7:15 PM PDT
Civil Twilight 5:56 AM PDT 7:40 PM PDT
Nautical Twilight 5:27 AM PDT 8:10 PM PDT
Astronomical Twilight 4:56 AM PDT 8:40 PM PDT
Moon 10:56 AM PDT 10:11 PM PDT
Length of Visible Light 13h 43m
Length of Day
12h 53m
Tomorrow will be 1m 55s shorter.
Waxing Crescent, 25% of the Moon is Illuminated
Today
Waxing Crescent
Sep 2
First Quarter
Sep 8
Full
Sep 15
Last Quarter
Sep 24
New

Today's Extremes

State Highs State Lows

Community

WunderPhotos

Upload Photos

1,748,670 photos uploaded!

Nearby

Air Quality

  Air Quality AQ Index Pollutant
Yesterday Good
PM2.5
Yesterday Good
OZONE
Current Moderate
PM2.5
Current Good
OZONE
Saturday Moderate
PM2.5
Saturday Good
OZONE
Sunday Moderate
PM2.5
Sunday Good
OZONE
Monday Good
PM2.5
Monday Good
OZONE

Snow Depth

Station Depth Elevation
Leavitt Meadows 0 in 7200 ft
Summit Meadow 0 in 9122 ft
Hagan's Meadow 0 in 8000 ft
Rubicon #2 0 in 7500 ft
CSS Lab 0 in 6900 ft

Earthquake Activity

City Distance Mag. Time & Date
Malibu, California 139 miles 2.5 8:11 AM PDT
2014-08-30
Minimum magnitude displayed is 2.5.

Coastal Water Temperatures

Place Temperature
La Jolla, CA 75.0 °F
San Diego, CA 75.0 °F

Nearby Weather Stations